Time;durP1;ratioP1;P1;durP2;ratioP2;P2;SDS_P1;SDS_P2;PMS_P1;PMS_P2;Temp;Humidity;BMP_temperature;BMP_pressure;BME280_temperature;BME280_humidity;BME280_pressure;Samples;Min_cycle;Max_cycle;Signal;HPM_P1;HPM_P2
2022/05/24 00:03:42;;;;;;;;;;;;;;;14.95;95.51;98139.47;8284674;28;20027;-76
2022/05/24 00:07:44;;;;;;;;;;;;;;;14.90;95.55;98133.56;8303298;28;19932;-75
2022/05/24 00:11:46;;;;;;;;;;;;;;;14.85;95.61;98131.16;8300775;28;20325;-76
2022/05/24 00:15:47;;;;;;;;;;;;;;;14.75;95.08;98125.47;8301148;28;19931;-76
2022/05/24 00:19:49;;;;;;;;;;;;;;;14.73;95.46;98136.91;8291178;28;19931;-75
2022/05/24 00:23:50;;;;;;;;;;;;;;;14.67;95.61;98129.31;8288372;28;19929;-75
2022/05/24 00:27:52;;;;;;;;;;;;;;;14.66;95.79;98123.22;8293599;28;19953;-76
2022/05/24 00:31:54;;;;;;;;;;;;;;;14.61;95.55;98127.78;8301300;28;20384;-76
2022/05/24 00:35:55;;;;;;;;;;;;;;;14.52;95.70;98125.53;8308091;28;19969;-75
2022/05/24 00:39:56;;;;;;;;;;;;;;;14.49;96.28;98129.13;8303093;28;19929;-76
2022/05/24 00:44:03;;;;;;;;;;;;;;;14.50;96.88;98125.59;8283022;28;19925;-75
2022/05/24 00:48:07;;;;;;;;;;;;;;;14.48;97.23;98134.44;8303154;28;19936;-76
2022/05/24 00:52:14;;;;;;;;;;;;;;;14.49;97.55;98134.34;8276937;28;19963;-75
2022/05/24 00:56:46;;;;;;;;;;;;;;;14.52;97.74;98133.38;8297320;28;20592;-75
2022/05/24 01:00:48;;;;;;;;;;;;;;;14.51;97.85;98122.09;8309335;28;20269;-76
2022/05/24 01:04:50;;;;;;;;;;;;;;;14.50;98.18;98119.53;8290069;28;19935;-76
2022/05/24 01:08:52;;;;;;;;;;;;;;;14.53;98.46;98122.03;8297869;28;19940;-76
2022/05/24 01:12:59;;;;;;;;;;;;;;;14.57;98.75;98120.16;8277798;28;20036;-76
2022/05/24 01:17:02;;;;;;;;;;;;;;;14.58;98.31;98127.06;8295692;28;19980;-75
2022/05/24 01:21:05;;;;;;;;;;;;;;;14.58;98.47;98119.25;8295997;28;19926;-76
2022/05/24 01:25:20;;;;;;;;;;;;;;;14.60;98.26;98122.63;8302740;28;19972;-76
2022/05/24 01:29:23;;;;;;;;;;;;;;;14.66;97.97;98119.75;8283364;28;19983;-75
2022/05/24 01:37:44;;;;;;;;;;;;;;;14.69;98.35;98104.81;8300908;28;19925;-76
2022/05/24 01:41:51;;;;;;;;;;;;;;;14.71;97.97;98112.56;8285436;28;20417;-76
2022/05/24 01:45:55;;;;;;;;;;;;;;;14.69;97.92;98117.88;8295609;28;20425;-76
2022/05/24 01:49:59;;;;;;;;;;;;;;;14.74;98.32;98100.25;8296836;28;19939;-75
2022/05/24 01:54:02;;;;;;;;;;;;;;;14.77;97.68;98110.56;8276153;28;20090;-76
2022/05/24 01:58:10;;;;;;;;;;;;;;;14.79;97.39;98116.59;8288439;28;19979;-76
2022/05/24 02:02:11;;;;;;;;;;;;;;;14.81;97.04;98119.13;8297866;28;19991;-76
2022/05/24 02:06:18;;;;;;;;;;;;;;;14.77;96.50;98104.50;8285579;28;19961;-76
2022/05/24 02:10:19;;;;;;;;;;;;;;;14.74;95.93;98108.09;8291429;28;19979;-76
2022/05/24 02:14:24;;;;;;;;;;;;;;;14.75;95.78;98108.94;8295285;28;19925;-76
2022/05/24 02:18:26;;;;;;;;;;;;;;;14.71;95.27;98108.19;8311017;28;20552;-76
2022/05/24 02:22:28;;;;;;;;;;;;;;;14.61;94.71;98109.50;8305311;28;19925;-76
2022/05/24 02:26:30;;;;;;;;;;;;;;;14.59;94.94;98118.31;8302008;28;19972;-76
2022/05/24 02:30:32;;;;;;;;;;;;;;;14.55;95.09;98109.78;8314481;28;19932;-76
2022/05/24 02:34:34;;;;;;;;;;;;;;;14.53;95.34;98103.72;8305084;28;19925;-76
2022/05/24 02:38:35;;;;;;;;;;;;;;;14.52;95.84;98096.81;8310274;28;20004;-76
2022/05/24 02:42:37;;;;;;;;;;;;;;;14.54;95.78;98105.44;8310665;28;20641;-75
2022/05/24 02:46:40;;;;;;;;;;;;;;;14.53;95.33;98095.91;8289444;28;19972;-75
2022/05/24 02:50:42;;;;;;;;;;;;;;;14.45;95.30;98084.94;8309984;28;20343;-76
2022/05/24 02:54:43;;;;;;;;;;;;;;;14.40;95.16;98058.97;8303137;28;20008;-75
2022/05/24 02:58:45;;;;;;;;;;;;;;;14.42;95.61;98098.09;8292773;28;19995;-74
2022/05/24 03:02:47;;;;;;;;;;;;;;;14.45;95.15;98105.81;8300483;28;19930;-74
2022/05/24 03:11:10;;;;;;;;;;;;;;;14.28;95.36;98100.41;8250723;28;19947;-75
2022/05/24 03:15:12;;;;;;;;;;;;;;;14.28;95.34;98113.44;8298323;28;19937;-75
2022/05/24 03:19:14;;;;;;;;;;;;;;;14.26;95.50;98113.50;8303286;28;19935;-76
2022/05/24 03:23:16;;;;;;;;;;;;;;;14.17;95.12;98121.69;8281118;28;19964;-75
2022/05/24 03:27:18;;;;;;;;;;;;;;;14.10;95.12;98126.31;8286466;28;20233;-74
2022/05/24 03:31:19;;;;;;;;;;;;;;;14.02;95.24;98130.16;8301550;28;19925;-75
2022/05/24 03:35:20;;;;;;;;;;;;;;;13.98;95.16;98137.22;8310759;28;19925;-74
2022/05/24 03:39:22;;;;;;;;;;;;;;;13.94;94.92;98142.63;8308371;28;19933;-75
2022/05/24 03:43:24;;;;;;;;;;;;;;;13.85;94.77;98142.06;8296213;28;20036;-75
2022/05/24 03:47:26;;;;;;;;;;;;;;;13.78;95.20;98161.47;8326114;28;20015;-74
2022/05/24 03:51:28;;;;;;;;;;;;;;;13.80;95.53;98166.63;8301855;28;20533;-75
2022/05/24 03:55:29;;;;;;;;;;;;;;;13.78;95.56;98182.31;8304263;28;19980;-76
2022/05/24 03:59:31;;;;;;;;;;;;;;;13.71;94.96;98193.91;8302198;28;20035;-76
2022/05/24 04:03:32;;;;;;;;;;;;;;;13.64;95.07;98197.63;8309207;28;20028;-75
2022/05/24 04:07:35;;;;;;;;;;;;;;;13.61;94.98;98208.16;8300498;28;20285;-75
2022/05/24 04:11:37;;;;;;;;;;;;;;;13.57;95.33;98217.00;8296014;28;19932;-75
2022/05/24 04:15:38;;;;;;;;;;;;;;;13.52;95.45;98214.56;8307026;28;20039;-76
2022/05/24 04:19:40;;;;;;;;;;;;;;;13.50;95.33;98223.38;8305759;28;19925;-75
2022/05/24 04:23:41;;;;;;;;;;;;;;;13.52;94.12;98224.16;8310633;28;19925;-76
2022/05/24 04:27:43;;;;;;;;;;;;;;;13.51;94.63;98219.84;8297958;28;19940;-76
2022/05/24 04:31:45;;;;;;;;;;;;;;;13.46;93.55;98227.81;8307416;28;20271;-76
2022/05/24 04:35:46;;;;;;;;;;;;;;;13.47;94.31;98219.13;8316643;28;19925;-76
2022/05/24 04:39:48;;;;;;;;;;;;;;;13.46;94.29;98227.81;8302308;28;19925;-76
2022/05/24 04:43:49;;;;;;;;;;;;;;;13.52;94.64;98243.25;8299820;28;19961;-76
2022/05/24 04:47:50;;;;;;;;;;;;;;;13.55;94.29;98250.13;8323273;28;20023;-76
2022/05/24 04:51:55;;;;;;;;;;;;;;;13.61;94.48;98242.06;8301806;28;19961;-75
2022/05/24 04:55:56;;;;;;;;;;;;;;;13.67;94.61;98254.06;8302302;28;20574;-76
2022/05/24 04:59:58;;;;;;;;;;;;;;;13.71;94.45;98264.34;8291168;28;20071;-76
2022/05/24 05:03:59;;;;;;;;;;;;;;;13.67;93.45;98264.50;8305079;28;19991;-76
2022/05/24 05:08:01;;;;;;;;;;;;;;;13.70;93.72;98265.25;8320845;28;19937;-76
2022/05/24 05:12:04;;;;;;;;;;;;;;;13.71;93.58;98266.94;8304509;28;19975;-76
2022/05/24 05:16:05;;;;;;;;;;;;;;;13.72;93.93;98275.63;8298175;28;20016;-76
2022/05/24 05:20:07;;;;;;;;;;;;;;;13.73;93.58;98292.97;8301870;28;19976;-77
2022/05/24 05:24:08;;;;;;;;;;;;;;;13.75;94.03;98294.63;8301903;28;20036;-76
2022/05/24 05:28:10;;;;;;;;;;;;;;;13.74;94.20;98303.38;8300035;28;19957;-76
2022/05/24 05:32:16;;;;;;;;;;;;;;;13.74;93.40;98312.94;8297634;28;19936;-76
2022/05/24 05:36:18;;;;;;;;;;;;;;;13.71;93.94;98315.66;8304983;28;19925;-76
2022/05/24 05:40:19;;;;;;;;;;;;;;;13.68;93.66;98316.63;8287900;28;19947;-76
2022/05/24 05:44:21;;;;;;;;;;;;;;;13.65;93.02;98321.94;8281468;28;19925;-76
2022/05/24 05:48:22;;;;;;;;;;;;;;;13.63;93.08;98343.75;8276153;28;19925;-76
2022/05/24 05:52:24;;;;;;;;;;;;;;;13.62;93.43;98358.53;8293191;28;19932;-76
2022/05/24 05:56:25;;;;;;;;;;;;;;;13.65;93.35;98368.06;8296816;28;19957;-76
2022/05/24 06:00:26;;;;;;;;;;;;;;;13.57;93.20;98376.13;8301730;28;19987;-76
2022/05/24 06:04:28;;;;;;;;;;;;;;;13.66;93.34;98382.81;8265101;28;19925;-76
2022/05/24 06:08:30;;;;;;;;;;;;;;;13.72;94.23;98396.47;8281268;28;20015;-75
2022/05/24 06:12:31;;;;;;;;;;;;;;;13.75;92.96;98401.59;8282281;28;19960;-76
2022/05/24 06:16:32;;;;;;;;;;;;;;;13.79;93.37;98410.16;8309552;28;20015;-75
2022/05/24 06:20:34;;;;;;;;;;;;;;;13.87;93.82;98416.84;8285119;28;20371;-76
2022/05/24 06:24:35;;;;;;;;;;;;;;;14.01;92.46;98416.41;8311189;28;20340;-76
2022/05/24 06:28:37;;;;;;;;;;;;;;;14.14;92.35;98432.47;8311525;28;20225;-76
2022/05/24 06:32:38;;;;;;;;;;;;;;;14.10;90.42;98415.22;8295862;28;20211;-76
2022/05/24 06:36:40;;;;;;;;;;;;;;;14.04;90.11;98423.28;8301933;28;19925;-76
2022/05/24 06:40:41;;;;;;;;;;;;;;;13.89;89.77;98416.78;8310229;28;19932;-76
2022/05/24 06:44:43;;;;;;;;;;;;;;;13.81;88.97;98411.81;8280962;28;20257;-76
2022/05/24 06:48:45;;;;;;;;;;;;;;;13.89;90.13;98419.41;8298034;28;19929;-76
2022/05/24 06:52:47;;;;;;;;;;;;;;;14.86;87.63;98433.41;8292428;28;19928;-76
2022/05/24 06:56:52;;;;;;;;;;;;;;;15.61;84.19;98426.16;8290469;28;20491;-76
2022/05/24 07:05:14;;;;;;;;;;;;;;;15.54;80.74;98435.13;8299743;28;19983;-75
2022/05/24 07:09:16;;;;;;;;;;;;;;;15.34;80.73;98440.31;8286612;28;20004;-75
2022/05/24 07:13:18;;;;;;;;;;;;;;;15.27;81.37;98446.72;8301403;28;19932;-75
2022/05/24 07:17:21;;;;;;;;;;;;;;;16.07;80.29;98449.63;8285795;28;20282;-76
2022/05/24 07:21:22;;;;;;;;;;;;;;;16.43;77.39;98452.44;8286789;28;19960;-75
2022/05/24 07:25:24;;;;;;;;;;;;;;;16.38;77.19;98451.81;8306896;28;20012;-75
2022/05/24 07:29:25;;;;;;;;;;;;;;;15.93;75.46;98476.38;8280962;28;19921;-75
2022/05/24 07:33:27;;;;;;;;;;;;;;;16.14;76.21;98490.34;8292576;28;19960;-75
2022/05/24 07:37:28;;;;;;;;;;;;;;;16.38;76.81;98488.47;8283645;28;19971;-76
2022/05/24 07:45:53;;;;;;;;;;;;;;;17.63;69.09;98517.00;8299116;28;19925;-75
2022/05/24 07:49:55;;;;;;;;;;;;;;;17.56;68.97;98505.91;8283729;28;19925;-75
2022/05/24 07:53:56;;;;;;;;;;;;;;;17.52;69.67;98523.59;8286484;28;19952;-75
2022/05/24 07:57:58;;;;;;;;;;;;;;;17.41;68.62;98520.59;8293959;28;19925;-74
2022/05/24 08:01:59;;;;;;;;;;;;;;;17.61;67.29;98514.44;8289589;28;19929;-73
2022/05/24 08:06:01;;;;;;;;;;;;;;;18.11;65.96;98511.19;8298691;28;19925;-75
2022/05/24 08:10:04;;;;;;;;;;;;;;;18.17;65.47;98517.94;8301683;28;20314;-75
2022/05/24 08:14:06;;;;;;;;;;;;;;;18.46;67.10;98522.56;8308933;28;19952;-73
2022/05/24 08:18:08;;;;;;;;;;;;;;;18.49;63.40;98530.34;8309473;28;19977;-74
2022/05/24 08:22:09;;;;;;;;;;;;;;;18.09;64.32;98528.81;8283658;28;19971;-74
2022/05/24 08:26:12;;;;;;;;;;;;;;;18.18;65.51;98525.75;8283146;28;19964;-75
2022/05/24 08:30:15;;;;;;;;;;;;;;;17.90;65.99;98538.50;8291668;28;20420;-73
2022/05/24 08:34:16;;;;;;;;;;;;;;;17.63;66.20;98540.63;8302465;28;20016;-74
2022/05/24 08:38:18;;;;;;;;;;;;;;;17.37;67.07;98558.41;8307341;28;19929;-75
2022/05/24 08:42:23;;;;;;;;;;;;;;;17.03;66.75;98561.69;8304612;28;19924;-74
2022/05/24 08:51:38;;;;;;;;;;;;;;;16.91;69.77;98564.84;8248563;28;19925;-75
2022/05/24 08:55:40;;;;;;;;;;;;;;;17.00;68.97;98574.94;8306480;28;20253;-75
2022/05/24 08:59:56;;;;;;;;;;;;;;;16.76;63.34;98584.72;8304715;28;21269;-74
2022/05/24 09:04:16;;;;;;;;;;;;;;;16.96;64.76;98573.38;8287144;28;19925;-74
2022/05/24 09:08:29;;;;;;;;;;;;;;;17.28;62.64;98576.34;8287436;28;19929;-75
2022/05/24 09:12:38;;;;;;;;;;;;;;;17.26;63.31;98576.44;8307524;28;19932;-74
2022/05/24 09:16:52;;;;;;;;;;;;;;;17.15;62.12;98583.91;8282106;28;20294;-74
2022/05/24 09:20:57;;;;;;;;;;;;;;;17.56;62.28;98579.41;8305407;28;20233;-74
2022/05/24 09:24:59;;;;;;;;;;;;;;;18.35;62.52;98588.84;8300994;28;20028;-75
2022/05/24 09:29:11;;;;;;;;;;;;;;;18.55;58.76;98577.34;8300291;28;19967;-74
2022/05/24 09:33:18;;;;;;;;;;;;;;;18.58;59.17;98578.97;8298442;28;19928;-75
2022/05/24 09:37:19;;;;;;;;;;;;;;;18.31;59.62;98586.41;8288466;28;19925;-75
2022/05/24 09:41:23;;;;;;;;;;;;;;;17.80;60.62;98593.25;8299318;28;19960;-75
2022/05/24 09:45:27;;;;;;;;;;;;;;;17.35;62.39;98596.13;8279762;28;20379;-74
2022/05/24 09:49:32;;;;;;;;;;;;;;;17.05;64.53;98599.19;8277644;28;20278;-74
2022/05/24 09:53:45;;;;;;;;;;;;;;;16.94;65.74;98611.06;8287971;28;19929;-74
2022/05/24 09:57:47;;;;;;;;;;;;;;;16.84;65.60;98610.59;8293584;28;19983;-74
2022/05/24 10:01:50;;;;;;;;;;;;;;;16.59;66.49;98606.34;8281746;28;19920;-74
2022/05/24 10:06:03;;;;;;;;;;;;;;;16.51;66.16;98611.03;8300974;28;19929;-76
2022/05/24 10:10:12;;;;;;;;;;;;;;;16.64;64.94;98616.63;8297565;28;19925;-76
2022/05/24 10:14:26;;;;;;;;;;;;;;;16.67;64.67;98613.91;8300208;28;20426;-76
2022/05/24 10:18:27;;;;;;;;;;;;;;;16.81;61.75;98616.81;8280723;28;19964;-74
2022/05/24 10:22:48;;;;;;;;;;;;;;;17.13;63.50;98615.47;8272969;28;20349;-75
2022/05/24 10:26:50;;;;;;;;;;;;;;;17.74;62.59;98622.41;8287450;28;19977;-75
2022/05/24 10:31:03;;;;;;;;;;;;;;;18.28;60.09;98624.22;8294226;28;19972;-75
2022/05/24 10:39:29;;;;;;;;;;;;;;;18.88;55.33;98618.69;8296855;28;19935;-75
2022/05/24 10:43:31;;;;;;;;;;;;;;;18.86;55.33;98610.88;8285951;28;20011;-75
2022/05/24 10:47:51;;;;;;;;;;;;;;;19.28;55.81;98609.59;8294460;28;19925;-77
2022/05/24 10:52:00;;;;;;;;;;;;;;;19.79;53.98;98620.97;8298498;28;20012;-77
2022/05/24 10:56:06;;;;;;;;;;;;;;;19.59;52.97;98612.34;8320033;28;20312;-76
2022/05/24 11:00:12;;;;;;;;;;;;;;;19.07;53.00;98629.97;8306101;28;19935;-77
2022/05/24 11:04:17;;;;;;;;;;;;;;;19.03;52.95;98620.56;8300021;28;19955;-76
2022/05/24 11:08:38;;;;;;;;;;;;;;;19.64;53.99;98613.88;8300141;28;19932;-76
2022/05/24 11:12:46;;;;;;;;;;;;;;;20.10;54.41;98614.84;8301756;28;20326;-74
2022/05/24 11:16:48;;;;;;;;;;;;;;;19.53;51.36;98622.31;8300983;28;19976;-74
2022/05/24 11:21:09;;;;;;;;;;;;;;;19.46;53.03;98620.94;8298539;28;19978;-76
2022/05/24 11:25:12;;;;;;;;;;;;;;;20.08;53.79;98614.94;8298880;28;19968;-74
2022/05/24 11:29:13;;;;;;;;;;;;;;;20.32;51.24;98619.78;8308573;28;19960;-76
2022/05/24 11:33:24;;;;;;;;;;;;;;;20.10;50.19;98622.75;8302056;28;20396;-77
2022/05/24 11:37:27;;;;;;;;;;;;;;;19.66;49.51;98623.41;8302866;28;19979;-76
2022/05/24 11:41:31;;;;;;;;;;;;;;;19.26;48.99;98627.25;8295089;28;20016;-77
2022/05/24 11:45:33;;;;;;;;;;;;;;;18.92;49.61;98626.34;8294887;28;19939;-76
2022/05/24 11:49:34;;;;;;;;;;;;;;;19.36;48.44;98623.19;8273041;28;20016;-76
2022/05/24 11:53:36;;;;;;;;;;;;;;;19.68;48.56;98620.69;8276843;28;20358;-75
2022/05/24 11:57:39;;;;;;;;;;;;;;;19.74;49.99;98629.09;8296990;28;19968;-77
2022/05/24 12:01:42;;;;;;;;;;;;;;;19.94;49.88;98625.41;8292908;28;20029;-77
2022/05/24 12:10:11;;;;;;;;;;;;;;;20.55;47.75;98629.91;8302159;28;20591;-75
2022/05/24 12:14:12;;;;;;;;;;;;;;;20.65;46.94;98638.16;8287237;28;20022;-76
2022/05/24 12:18:15;;;;;;;;;;;;;;;20.41;48.10;98645.66;8297247;28;19935;-77
2022/05/24 12:22:21;;;;;;;;;;;;;;;20.29;49.05;98648.94;8285950;28;19956;-76
2022/05/24 12:26:23;;;;;;;;;;;;;;;20.15;49.25;98647.09;8294698;28;19924;-77
2022/05/24 12:30:30;;;;;;;;;;;;;;;19.91;49.08;98646.63;8281515;28;19929;-76
2022/05/24 12:34:32;;;;;;;;;;;;;;;19.83;49.97;98644.41;8289947;28;20628;-76
2022/05/24 12:38:35;;;;;;;;;;;;;;;19.55;46.93;98644.19;8280871;28;20244;-76
2022/05/24 12:42:44;;;;;;;;;;;;;;;19.62;49.72;98650.84;8295117;28;19960;-76
2022/05/24 12:46:48;;;;;;;;;;;;;;;19.50;48.48;98639.13;8299193;28;19925;-76
2022/05/24 12:50:58;;;;;;;;;;;;;;;19.28;48.64;98638.56;8292348;28;19932;-76
2022/05/24 12:55:02;;;;;;;;;;;;;;;19.20;48.23;98632.81;8298437;28;19925;-77
2022/05/24 12:59:12;;;;;;;;;;;;;;;19.14;49.47;98643.66;8298283;28;20004;-77
2022/05/24 13:03:22;;;;;;;;;;;;;;;19.03;51.68;98646.88;8289647;28;20239;-74
2022/05/24 13:07:35;;;;;;;;;;;;;;;18.86;49.78;98638.97;8285809;28;20023;-76
2022/05/24 13:11:36;;;;;;;;;;;;;;;18.87;51.92;98654.69;8292322;28;19982;-76
2022/05/24 13:15:40;;;;;;;;;;;;;;;19.02;52.59;98653.88;8280044;28;19959;-75
2022/05/24 13:19:52;;;;;;;;;;;;;;;18.89;49.99;98655.44;8295665;28;19925;-75
2022/05/24 13:24:15;;;;;;;;;;;;;;;18.71;50.43;98661.63;8279823;28;20372;-75
2022/05/24 13:28:35;;;;;;;;;;;;;;;18.53;52.61;98655.44;8294661;28;19925;-75
2022/05/24 13:37:07;;;;;;;;;;;;;;;19.20;52.65;98644.19;8293898;28;20238;-74
2022/05/24 13:41:09;;;;;;;;;;;;;;;18.94;51.47;98656.06;8278463;28;19932;-75
2022/05/24 13:45:13;;;;;;;;;;;;;;;18.82;53.31;98650.53;8304594;28;20261;-75
2022/05/24 13:49:30;;;;;;;;;;;;;;;18.75;51.68;98651.78;8293115;28;19925;-75
2022/05/24 13:53:36;;;;;;;;;;;;;;;18.61;52.41;98665.56;8292498;28;19925;-74
2022/05/24 13:57:55;;;;;;;;;;;;;;;18.39;53.50;98673.66;8292018;28;19925;-74
2022/05/24 14:02:06;;;;;;;;;;;;;;;18.12;54.57;98676.63;8278864;28;19925;-76
2022/05/24 14:06:15;;;;;;;;;;;;;;;17.93;55.52;98669.69;8273897;28;19931;-74
2022/05/24 14:10:21;;;;;;;;;;;;;;;17.87;57.35;98672.59;8287178;28;19929;-74
2022/05/24 14:14:23;;;;;;;;;;;;;;;18.01;61.53;98657.06;8291334;28;19925;-74
2022/05/24 14:18:25;;;;;;;;;;;;;;;18.68;63.36;98657.38;8272717;28;19939;-74
2022/05/24 14:22:27;;;;;;;;;;;;;;;19.33;58.09;98652.31;8275113;28;19931;-75
2022/05/24 14:26:28;;;;;;;;;;;;;;;19.50;53.32;98652.28;8274866;28;20350;-76
2022/05/24 14:30:31;;;;;;;;;;;;;;;19.47;55.26;98657.72;8297625;28;19933;-75
2022/05/24 14:34:32;;;;;;;;;;;;;;;19.23;54.73;98659.84;8288762;28;20012;-74
2022/05/24 14:38:33;;;;;;;;;;;;;;;19.10;52.46;98652.66;8284373;28;20277;-74
2022/05/24 14:42:35;;;;;;;;;;;;;;;19.10;50.35;98652.66;8279531;28;19978;-74
2022/05/24 14:46:41;;;;;;;;;;;;;;;18.89;51.12;98649.34;8301013;28;19936;-75
2022/05/24 14:50:43;;;;;;;;;;;;;;;18.91;52.23;98652.72;8281814;28;20008;-75
2022/05/24 14:54:46;;;;;;;;;;;;;;;19.25;52.70;98657.13;8299782;28;19929;-75
2022/05/24 14:58:48;;;;;;;;;;;;;;;19.25;52.04;98662.41;8296769;28;19937;-74
2022/05/24 15:02:50;;;;;;;;;;;;;;;19.10;52.92;98668.44;8277069;28;20606;-75
2022/05/24 15:06:51;;;;;;;;;;;;;;;18.99;53.06;98679.50;8292574;28;19926;-75
2022/05/24 15:15:22;;;;;;;;;;;;;;;18.55;51.73;98689.53;8300776;28;19970;-75
2022/05/24 15:19:24;;;;;;;;;;;;;;;18.46;51.64;98695.22;8313106;28;20598;-75
2022/05/24 15:23:28;;;;;;;;;;;;;;;18.50;52.30;98707.31;8301850;28;19968;-75
2022/05/24 15:27:30;;;;;;;;;;;;;;;18.56;52.33;98704.41;8301368;28;20501;-75
2022/05/24 15:31:32;;;;;;;;;;;;;;;18.68;53.90;98712.59;8294571;28;19926;-75
2022/05/24 15:35:35;;;;;;;;;;;;;;;18.72;51.81;98705.41;8290398;28;19929;-75
2022/05/24 15:39:36;;;;;;;;;;;;;;;19.02;52.55;98714.41;8299601;28;19925;-75
2022/05/24 15:43:40;;;;;;;;;;;;;;;19.40;51.23;98711.66;8301651;28;20039;-75
2022/05/24 15:47:41;;;;;;;;;;;;;;;19.62;47.80;98711.41;8301878;28;19925;-75
2022/05/24 15:51:43;;;;;;;;;;;;;;;19.60;48.38;98722.03;8313567;28;19987;-75
2022/05/24 15:55:44;;;;;;;;;;;;;;;19.38;47.95;98724.00;8302770;28;19932;-75
2022/05/24 15:59:47;;;;;;;;;;;;;;;19.20;48.89;98715.25;8302227;28;19935;-75
2022/05/24 16:03:49;;;;;;;;;;;;;;;18.92;48.42;98709.69;8305559;28;19964;-75
2022/05/24 16:12:12;;;;;;;;;;;;;;;18.68;50.42;98722.25;8298770;28;20411;-75
2022/05/24 16:16:14;;;;;;;;;;;;;;;18.62;51.28;98714.59;8290900;28;19925;-74
2022/05/24 16:20:17;;;;;;;;;;;;;;;18.76;52.76;98712.22;8308199;28;19995;-74
2022/05/24 16:24:18;;;;;;;;;;;;;;;18.97;50.62;98713.78;8308444;28;19936;-74
2022/05/24 16:28:20;;;;;;;;;;;;;;;19.23;51.71;98711.66;8300148;28;19987;-74
2022/05/24 16:32:22;;;;;;;;;;;;;;;19.16;51.14;98715.50;8300634;28;19925;-74
2022/05/24 16:36:24;;;;;;;;;;;;;;;18.95;47.84;98715.63;8298256;28;19925;-74
2022/05/24 16:40:30;;;;;;;;;;;;;;;18.92;48.03;98717.56;8286674;28;20269;-75
2022/05/24 16:44:31;;;;;;;;;;;;;;;18.86;48.82;98717.88;8301998;28;19987;-75
2022/05/24 16:48:36;;;;;;;;;;;;;;;18.56;47.88;98715.75;8300741;28;20016;-76
2022/05/24 16:52:37;;;;;;;;;;;;;;;18.40;47.89;98730.56;8293820;28;19936;-76
2022/05/24 17:00:59;;;;;;;;;;;;;;;17.96;49.74;98725.56;8286464;28;20033;-77
2022/05/24 17:05:01;;;;;;;;;;;;;;;17.82;48.87;98743.72;8281676;28;19951;-77
2022/05/24 17:09:02;;;;;;;;;;;;;;;17.62;49.73;98731.44;8285388;28;19925;-77
2022/05/24 17:13:08;;;;;;;;;;;;;;;17.58;51.37;98728.97;8270044;28;19947;-77
2022/05/24 17:17:09;;;;;;;;;;;;;;;17.55;52.21;98731.75;8280429;28;19921;-77
2022/05/24 17:21:13;;;;;;;;;;;;;;;17.50;52.37;98735.44;8299140;28;19980;-77
2022/05/24 17:25:15;;;;;;;;;;;;;;;17.43;54.16;98736.63;8277430;28;20032;-77
2022/05/24 17:29:17;;;;;;;;;;;;;;;17.30;53.51;98743.31;8279898;28;19969;-77
2022/05/24 17:33:24;;;;;;;;;;;;;;;17.22;53.60;98740.97;8300006;28;19937;-76
2022/05/24 17:37:27;;;;;;;;;;;;;;;17.11;55.50;98740.59;8292308;28;19929;-77
2022/05/24 17:41:29;;;;;;;;;;;;;;;17.00;54.54;98744.56;8301834;28;21213;-77
2022/05/24 17:45:32;;;;;;;;;;;;;;;16.88;55.24;98752.03;8297640;28;19925;-76
2022/05/24 17:49:34;;;;;;;;;;;;;;;16.66;56.88;98764.22;8269219;28;20223;-76
2022/05/24 17:53:35;;;;;;;;;;;;;;;16.48;59.11;98773.66;8270297;28;19928;-77
2022/05/24 17:57:37;;;;;;;;;;;;;;;16.32;57.51;98776.00;8294649;28;20183;-77
2022/05/24 18:01:38;;;;;;;;;;;;;;;16.20;58.32;98768.63;8285226;28;20699;-76
2022/05/24 18:05:40;;;;;;;;;;;;;;;16.09;58.50;98773.38;8299000;28;20040;-77
2022/05/24 18:09:42;;;;;;;;;;;;;;;16.04;59.32;98777.09;8301324;28;19960;-77
2022/05/24 18:13:44;;;;;;;;;;;;;;;15.94;59.59;98782.63;8281963;28;20297;-76
2022/05/24 18:17:47;;;;;;;;;;;;;;;15.87;62.80;98790.78;8305598;28;20462;-76
2022/05/24 18:21:50;;;;;;;;;;;;;;;15.75;64.22;98799.91;8294168;28;19972;-76
2022/05/24 18:34:39;;;;;;;;;;;;;;;15.37;65.98;98807.28;8289427;28;20040;-77
2022/05/24 18:38:40;;;;;;;;;;;;;;;15.20;67.65;98804.34;8298385;28;20039;-75
2022/05/24 18:42:42;;;;;;;;;;;;;;;15.05;69.79;98807.44;8294072;28;19930;-77
2022/05/24 18:46:46;;;;;;;;;;;;;;;14.88;71.63;98805.38;8282652;28;19929;-77
2022/05/24 18:50:47;;;;;;;;;;;;;;;14.70;72.97;98804.19;8284523;28;20315;-76
2022/05/24 18:54:49;;;;;;;;;;;;;;;14.57;72.79;98812.47;8274899;28;19937;-76
2022/05/24 18:59:10;;;;;;;;;;;;;;;14.40;73.60;98825.97;8285856;28;19926;-77
2022/05/24 19:03:12;;;;;;;;;;;;;;;14.21;74.17;98823.91;8292815;28;19925;-77
2022/05/24 19:07:16;;;;;;;;;;;;;;;14.06;74.47;98828.69;8297212;28;19926;-77
2022/05/24 19:11:18;;;;;;;;;;;;;;;13.91;75.05;98843.84;8297210;28;19976;-77
2022/05/24 19:15:19;;;;;;;;;;;;;;;13.76;76.77;98846.00;8288786;28;19944;-77
2022/05/24 19:19:20;;;;;;;;;;;;;;;13.65;76.47;98855.88;8305471;28;20004;-77
2022/05/24 19:23:31;;;;;;;;;;;;;;;13.51;76.94;98856.22;8279562;28;19925;-76
2022/05/24 19:27:33;;;;;;;;;;;;;;;13.37;77.71;98861.75;8298859;28;19967;-76
2022/05/24 19:31:34;;;;;;;;;;;;;;;13.26;78.57;98876.78;8282419;28;19971;-76
2022/05/24 19:35:35;;;;;;;;;;;;;;;13.16;79.65;98870.91;8274518;28;19926;-76
2022/05/24 19:43:57;;;;;;;;;;;;;;;12.95;80.65;98877.47;8296773;28;20644;-75
2022/05/24 19:47:59;;;;;;;;;;;;;;;12.84;81.31;98883.81;8300874;28;19968;-76
2022/05/24 19:52:02;;;;;;;;;;;;;;;12.75;81.21;98884.88;8304424;28;19965;-75
2022/05/24 19:56:04;;;;;;;;;;;;;;;12.70;80.59;98886.72;8296885;28;19929;-75
2022/05/24 20:00:07;;;;;;;;;;;;;;;12.57;81.83;98893.94;8299884;28;19928;-75
2022/05/24 20:04:08;;;;;;;;;;;;;;;12.52;81.30;98907.91;8294680;28;19929;-75
2022/05/24 20:08:10;;;;;;;;;;;;;;;12.44;80.91;98904.63;8302699;28;19925;-75
2022/05/24 20:12:12;;;;;;;;;;;;;;;12.36;80.93;98905.59;8303920;28;19956;-75
2022/05/24 20:16:13;;;;;;;;;;;;;;;12.30;81.20;98910.09;8292442;28;19921;-75
2022/05/24 20:20:15;;;;;;;;;;;;;;;12.23;81.69;98918.91;8294897;28;19935;-75
2022/05/24 20:24:16;;;;;;;;;;;;;;;12.17;81.92;98919.00;8299391;28;20501;-75
2022/05/24 20:28:18;;;;;;;;;;;;;;;12.06;82.01;98927.03;8295830;28;19935;-75
2022/05/24 20:32:19;;;;;;;;;;;;;;;11.98;82.19;98927.16;8288974;28;20356;-74
2022/05/24 20:36:21;;;;;;;;;;;;;;;11.91;81.94;98933.34;8297824;28;19935;-74
2022/05/24 20:40:23;;;;;;;;;;;;;;;11.86;82.51;98931.72;8287124;28;20755;-75
2022/05/24 20:44:25;;;;;;;;;;;;;;;11.76;82.80;98938.78;8288864;28;19931;-77
2022/05/24 20:48:26;;;;;;;;;;;;;;;11.66;82.72;98938.06;8297522;28;19925;-75
2022/05/24 20:52:28;;;;;;;;;;;;;;;11.59;82.75;98946.84;8278561;28;19936;-76
2022/05/24 20:56:29;;;;;;;;;;;;;;;11.55;83.10;98949.53;8298863;28;19932;-75
2022/05/24 21:00:31;;;;;;;;;;;;;;;11.44;83.45;98944.47;8279389;28;20032;-75
2022/05/24 21:04:33;;;;;;;;;;;;;;;11.36;84.09;98960.19;8282567;28;19967;-75
2022/05/24 21:08:35;;;;;;;;;;;;;;;11.30;84.44;98959.41;8297015;28;19980;-75
2022/05/24 21:12:36;;;;;;;;;;;;;;;11.24;84.55;98973.34;8272347;28;19940;-75
2022/05/24 21:16:39;;;;;;;;;;;;;;;11.09;84.33;98978.75;8298789;28;20354;-75
2022/05/24 21:20:40;;;;;;;;;;;;;;;10.98;85.24;98976.31;8292216;28;19936;-75
2022/05/24 21:24:42;;;;;;;;;;;;;;;10.85;85.59;98985.13;8296441;28;20246;-75
2022/05/24 21:28:47;;;;;;;;;;;;;;;10.81;86.35;98978.25;8278013;28;19925;-75
2022/05/24 21:32:55;;;;;;;;;;;;;;;10.80;86.50;98985.19;8287840;28;20024;-75
2022/05/24 21:36:56;;;;;;;;;;;;;;;10.79;86.25;98993.88;8271368;28;20402;-75
2022/05/24 21:40:58;;;;;;;;;;;;;;;10.76;86.34;98990.41;8273723;28;20662;-75
2022/05/24 21:45:00;;;;;;;;;;;;;;;10.72;86.19;98992.19;8257203;28;20019;-75
2022/05/24 21:49:01;;;;;;;;;;;;;;;10.70;86.36;99006.94;8269348;28;19926;-75
2022/05/24 21:53:05;;;;;;;;;;;;;;;10.67;86.10;99006.97;8269402;28;19925;-75
2022/05/24 21:57:07;;;;;;;;;;;;;;;10.63;86.38;99013.09;8258102;28;19929;-75
2022/05/24 22:01:09;;;;;;;;;;;;;;;10.59;86.06;99016.56;8250975;28;19925;-75
2022/05/24 22:05:10;;;;;;;;;;;;;;;10.52;86.43;99012.31;8269134;28;20351;-75
2022/05/24 22:09:11;;;;;;;;;;;;;;;10.47;87.22;99025.34;8264819;28;19926;-75
2022/05/24 22:13:14;;;;;;;;;;;;;;;10.45;87.13;99034.91;8246439;28;20008;-75